Terminal Aerodrome Forecast
Issued by NWS

Home | Current Version | Previous Version | Text Only | Print | Product List | Glossary On
Versions: 1 2 3 4 5 6 7 8 9 10 11 12 13 14 15 16 17 18 19 20
000
FTUS44 KLZK 270529
TAFHRO
TAF
KHRO 270529Z 2706/2806 11006KT P6SM VCSH SCT025 OVC040
     FM270900 12005KT 6SM -RA BR BKN015 OVC040
      TEMPO 2710/2714 2SM -RA BR OVC008
     FM271500 14005KT P6SM VCSH BKN008 OVC040
     FM271800 15008KT P6SM SCT030 BKN050 OVC250=

USA.gov is the U.S. government's official web portal to all federal, state and local government web resources and services.